sensor_id;sensor_type;location;lat;lon;timestamp;P1;durP1;ratioP1;P2;durP2;ratioP2
3767;SDS011;1899;49.966;7.106;2023-07-24T00:00:31;3.87;;;2.20;;
3767;SDS011;1899;49.966;7.106;2023-07-24T00:02:56;2.93;;;2.40;;
3767;SDS011;1899;49.966;7.106;2023-07-24T00:05:21;2.13;;;1.93;;
3767;SDS011;1899;49.966;7.106;2023-07-24T00:07:46;3.27;;;2.03;;
3767;SDS011;1899;49.966;7.106;2023-07-24T00:10:12;2.60;;;1.93;;
3767;SDS011;1899;49.966;7.106;2023-07-24T00:12:37;2.60;;;2.20;;
3767;SDS011;1899;49.966;7.106;2023-07-24T00:15:02;2.63;;;2.10;;
3767;SDS011;1899;49.966;7.106;2023-07-24T00:17:28;3.63;;;2.60;;
3767;SDS011;1899;49.966;7.106;2023-07-24T00:19:53;2.67;;;1.90;;
3767;SDS011;1899;49.966;7.106;2023-07-24T00:22:18;4.57;;;2.57;;
3767;SDS011;1899;49.966;7.106;2023-07-24T00:24:43;2.43;;;2.23;;
3767;SDS011;1899;49.966;7.106;2023-07-24T00:27:09;2.40;;;2.07;;
3767;SDS011;1899;49.966;7.106;2023-07-24T00:29:34;3.97;;;2.27;;
3767;SDS011;1899;49.966;7.106;2023-07-24T00:31:59;2.43;;;1.97;;
3767;SDS011;1899;49.966;7.106;2023-07-24T00:34:24;2.70;;;2.37;;
3767;SDS011;1899;49.966;7.106;2023-07-24T00:36:49;3.17;;;2.40;;
3767;SDS011;1899;49.966;7.106;2023-07-24T00:39:15;4.43;;;3.07;;
3767;SDS011;1899;49.966;7.106;2023-07-24T00:41:40;3.50;;;2.63;;
3767;SDS011;1899;49.966;7.106;2023-07-24T00:44:05;3.47;;;2.70;;
3767;SDS011;1899;49.966;7.106;2023-07-24T00:46:31;3.30;;;2.33;;
3767;SDS011;1899;49.966;7.106;2023-07-24T00:48:57;3.50;;;2.20;;
3767;SDS011;1899;49.966;7.106;2023-07-24T00:51:23;4.53;;;2.40;;
3767;SDS011;1899;49.966;7.106;2023-07-24T00:53:48;2.20;;;2.00;;
3767;SDS011;1899;49.966;7.106;2023-07-24T00:56:13;3.63;;;2.37;;
3767;SDS011;1899;49.966;7.106;2023-07-24T00:58:39;3.50;;;2.40;;
3767;SDS011;1899;49.966;7.106;2023-07-24T01:01:04;3.67;;;2.77;;
3767;SDS011;1899;49.966;7.106;2023-07-24T01:03:33;2.97;;;2.43;;
3767;SDS011;1899;49.966;7.106;2023-07-24T01:05:59;3.30;;;2.60;;
3767;SDS011;1899;49.966;7.106;2023-07-24T01:08:25;2.60;;;2.13;;
3767;SDS011;1899;49.966;7.106;2023-07-24T01:10:51;2.07;;;1.80;;
3767;SDS011;1899;49.966;7.106;2023-07-24T01:13:17;3.20;;;2.27;;
3767;SDS011;1899;49.966;7.106;2023-07-24T01:16:03;2.80;;;2.50;;
3767;SDS011;1899;49.966;7.106;2023-07-24T01:18:31;6.30;;;2.50;;
3767;SDS011;1899;49.966;7.106;2023-07-24T01:20:57;2.17;;;1.97;;
3767;SDS011;1899;49.966;7.106;2023-07-24T01:26:07;3.33;;;2.63;;
3767;SDS011;1899;49.966;7.106;2023-07-24T01:28:32;2.90;;;1.93;;
3767;SDS011;1899;49.966;7.106;2023-07-24T01:30:58;3.90;;;2.73;;
3767;SDS011;1899;49.966;7.106;2023-07-24T01:33:23;3.13;;;2.30;;
3767;SDS011;1899;49.966;7.106;2023-07-24T01:35:55;3.43;;;2.47;;
3767;SDS011;1899;49.966;7.106;2023-07-24T01:38:23;3.70;;;2.60;;
3767;SDS011;1899;49.966;7.106;2023-07-24T01:40:48;3.07;;;2.73;;
3767;SDS011;1899;49.966;7.106;2023-07-24T01:43:14;4.33;;;2.30;;
3767;SDS011;1899;49.966;7.106;2023-07-24T01:45:40;3.60;;;2.20;;
3767;SDS011;1899;49.966;7.106;2023-07-24T01:48:05;3.90;;;2.50;;
3767;SDS011;1899;49.966;7.106;2023-07-24T01:50:31;2.50;;;1.93;;
3767;SDS011;1899;49.966;7.106;2023-07-24T01:52:56;3.40;;;2.63;;
3767;SDS011;1899;49.966;7.106;2023-07-24T01:55:21;3.27;;;2.20;;
3767;SDS011;1899;49.966;7.106;2023-07-24T01:57:46;3.50;;;2.30;;
3767;SDS011;1899;49.966;7.106;2023-07-24T02:00:12;3.57;;;2.60;;
3767;SDS011;1899;49.966;7.106;2023-07-24T02:02:37;3.50;;;2.27;;
3767;SDS011;1899;49.966;7.106;2023-07-24T02:05:02;2.80;;;2.20;;
3767;SDS011;1899;49.966;7.106;2023-07-24T02:07:28;3.47;;;2.27;;
3767;SDS011;1899;49.966;7.106;2023-07-24T02:09:53;2.80;;;2.17;;
3767;SDS011;1899;49.966;7.106;2023-07-24T02:12:18;4.53;;;2.67;;
3767;SDS011;1899;49.966;7.106;2023-07-24T02:14:43;3.10;;;2.47;;
3767;SDS011;1899;49.966;7.106;2023-07-24T02:17:08;3.93;;;2.40;;
3767;SDS011;1899;49.966;7.106;2023-07-24T02:19:34;2.73;;;2.40;;
3767;SDS011;1899;49.966;7.106;2023-07-24T02:21:59;3.87;;;2.47;;
3767;SDS011;1899;49.966;7.106;2023-07-24T02:24:24;3.97;;;2.80;;
3767;SDS011;1899;49.966;7.106;2023-07-24T02:26:49;3.20;;;2.10;;
3767;SDS011;1899;49.966;7.106;2023-07-24T02:29:15;3.77;;;3.10;;
3767;SDS011;1899;49.966;7.106;2023-07-24T02:31:40;3.80;;;2.80;;
3767;SDS011;1899;49.966;7.106;2023-07-24T02:34:05;4.67;;;2.80;;
3767;SDS011;1899;49.966;7.106;2023-07-24T02:36:31;2.90;;;2.60;;
3767;SDS011;1899;49.966;7.106;2023-07-24T02:38:56;3.50;;;2.50;;
3767;SDS011;1899;49.966;7.106;2023-07-24T02:41:21;3.43;;;2.20;;
3767;SDS011;1899;49.966;7.106;2023-07-24T02:43:46;3.00;;;2.70;;
3767;SDS011;1899;49.966;7.106;2023-07-24T02:46:12;5.77;;;3.20;;
3767;SDS011;1899;49.966;7.106;2023-07-24T02:48:37;8.73;;;3.20;;
3767;SDS011;1899;49.966;7.106;2023-07-24T02:51:02;3.13;;;2.77;;
3767;SDS011;1899;49.966;7.106;2023-07-24T02:53:28;2.53;;;2.33;;
3767;SDS011;1899;49.966;7.106;2023-07-24T02:55:53;3.00;;;2.70;;
3767;SDS011;1899;49.966;7.106;2023-07-24T02:58:18;3.57;;;2.53;;
3767;SDS011;1899;49.966;7.106;2023-07-24T03:00:43;7.20;;;3.03;;
3767;SDS011;1899;49.966;7.106;2023-07-24T03:03:08;4.90;;;3.00;;
3767;SDS011;1899;49.966;7.106;2023-07-24T03:05:34;2.83;;;2.53;;
3767;SDS011;1899;49.966;7.106;2023-07-24T03:08:00;4.67;;;3.00;;
3767;SDS011;1899;49.966;7.106;2023-07-24T03:10:25;4.80;;;2.93;;
3767;SDS011;1899;49.966;7.106;2023-07-24T03:12:50;3.33;;;2.73;;
3767;SDS011;1899;49.966;7.106;2023-07-24T03:15:16;3.27;;;2.53;;
3767;SDS011;1899;49.966;7.106;2023-07-24T03:17:41;4.43;;;2.93;;
3767;SDS011;1899;49.966;7.106;2023-07-24T03:20:24;4.70;;;3.20;;
3767;SDS011;1899;49.966;7.106;2023-07-24T03:22:49;3.70;;;2.63;;
3767;SDS011;1899;49.966;7.106;2023-07-24T03:25:15;4.60;;;2.83;;
3767;SDS011;1899;49.966;7.106;2023-07-24T03:27:40;4.43;;;2.73;;
3767;SDS011;1899;49.966;7.106;2023-07-24T03:30:05;6.77;;;3.53;;
3767;SDS011;1899;49.966;7.106;2023-07-24T03:32:31;5.00;;;3.20;;
3767;SDS011;1899;49.966;7.106;2023-07-24T03:34:56;6.67;;;3.23;;
3767;SDS011;1899;49.966;7.106;2023-07-24T03:37:21;3.20;;;2.90;;
3767;SDS011;1899;49.966;7.106;2023-07-24T03:39:46;4.27;;;3.30;;
3767;SDS011;1899;49.966;7.106;2023-07-24T03:42:12;6.90;;;3.73;;
3767;SDS011;1899;49.966;7.106;2023-07-24T03:44:40;3.63;;;2.47;;
3767;SDS011;1899;49.966;7.106;2023-07-24T03:47:06;7.70;;;3.70;;
3767;SDS011;1899;49.966;7.106;2023-07-24T03:49:31;4.57;;;3.20;;
3767;SDS011;1899;49.966;7.106;2023-07-24T03:51:56;4.27;;;2.80;;
3767;SDS011;1899;49.966;7.106;2023-07-24T03:54:21;6.10;;;3.80;;
3767;SDS011;1899;49.966;7.106;2023-07-24T03:56:47;4.97;;;3.70;;
3767;SDS011;1899;49.966;7.106;2023-07-24T03:59:12;3.90;;;2.90;;
3767;SDS011;1899;49.966;7.106;2023-07-24T04:01:37;4.73;;;3.30;;
3767;SDS011;1899;49.966;7.106;2023-07-24T04:04:03;6.47;;;3.07;;
3767;SDS011;1899;49.966;7.106;2023-07-24T04:06:28;4.87;;;3.50;;
3767;SDS011;1899;49.966;7.106;2023-07-24T04:08:53;5.57;;;3.93;;
3767;SDS011;1899;49.966;7.106;2023-07-24T04:11:18;4.57;;;3.17;;
3767;SDS011;1899;49.966;7.106;2023-07-24T04:13:43;4.50;;;3.73;;
3767;SDS011;1899;49.966;7.106;2023-07-24T04:16:09;6.10;;;4.07;;
3767;SDS011;1899;49.966;7.106;2023-07-24T04:18:35;3.53;;;3.17;;
3767;SDS011;1899;49.966;7.106;2023-07-24T04:21:00;4.77;;;3.30;;
3767;SDS011;1899;49.966;7.106;2023-07-24T04:23:25;5.50;;;3.57;;
3767;SDS011;1899;49.966;7.106;2023-07-24T04:25:50;5.90;;;3.87;;
3767;SDS011;1899;49.966;7.106;2023-07-24T04:28:15;6.30;;;4.17;;
3767;SDS011;1899;49.966;7.106;2023-07-24T04:30:41;5.00;;;3.30;;
3767;SDS011;1899;49.966;7.106;2023-07-24T04:33:06;6.00;;;4.40;;
3767;SDS011;1899;49.966;7.106;2023-07-24T04:35:31;5.83;;;3.90;;
3767;SDS011;1899;49.966;7.106;2023-07-24T04:37:57;4.00;;;3.17;;
3767;SDS011;1899;49.966;7.106;2023-07-24T04:40:22;9.83;;;4.07;;
3767;SDS011;1899;49.966;7.106;2023-07-24T04:42:47;6.83;;;3.70;;
3767;SDS011;1899;49.966;7.106;2023-07-24T04:45:13;5.17;;;3.73;;
3767;SDS011;1899;49.966;7.106;2023-07-24T04:47:38;5.93;;;4.13;;
3767;SDS011;1899;49.966;7.106;2023-07-24T04:50:04;5.53;;;3.23;;
3767;SDS011;1899;49.966;7.106;2023-07-24T04:52:29;5.93;;;4.27;;
3767;SDS011;1899;49.966;7.106;2023-07-24T04:54:54;9.20;;;3.53;;
3767;SDS011;1899;49.966;7.106;2023-07-24T04:57:19;5.77;;;3.80;;
3767;SDS011;1899;49.966;7.106;2023-07-24T04:59:45;5.30;;;3.70;;
3767;SDS011;1899;49.966;7.106;2023-07-24T05:02:10;4.70;;;3.60;;
3767;SDS011;1899;49.966;7.106;2023-07-24T05:04:35;4.40;;;3.03;;
3767;SDS011;1899;49.966;7.106;2023-07-24T05:07:00;4.70;;;3.50;;
3767;SDS011;1899;49.966;7.106;2023-07-24T05:09:26;3.90;;;3.13;;
3767;SDS011;1899;49.966;7.106;2023-07-24T05:11:51;7.90;;;3.17;;
3767;SDS011;1899;49.966;7.106;2023-07-24T05:14:16;6.47;;;3.83;;
3767;SDS011;1899;49.966;7.106;2023-07-24T05:16:41;6.10;;;4.00;;
3767;SDS011;1899;49.966;7.106;2023-07-24T05:19:07;9.00;;;4.27;;
3767;SDS011;1899;49.966;7.106;2023-07-24T05:21:32;5.83;;;3.70;;
3767;SDS011;1899;49.966;7.106;2023-07-24T05:23:57;4.20;;;3.50;;
3767;SDS011;1899;49.966;7.106;2023-07-24T05:26:23;6.40;;;3.60;;
3767;SDS011;1899;49.966;7.106;2023-07-24T05:28:48;4.77;;;3.33;;
3767;SDS011;1899;49.966;7.106;2023-07-24T05:31:13;4.13;;;3.33;;
3767;SDS011;1899;49.966;7.106;2023-07-24T05:33:38;6.13;;;3.13;;
3767;SDS011;1899;49.966;7.106;2023-07-24T05:36:04;4.93;;;3.17;;
3767;SDS011;1899;49.966;7.106;2023-07-24T05:38:29;5.23;;;3.43;;
3767;SDS011;1899;49.966;7.106;2023-07-24T05:40:58;6.67;;;3.23;;
3767;SDS011;1899;49.966;7.106;2023-07-24T05:43:23;4.60;;;2.73;;
3767;SDS011;1899;49.966;7.106;2023-07-24T05:45:52;4.03;;;3.33;;
3767;SDS011;1899;49.966;7.106;2023-07-24T05:48:17;5.63;;;4.13;;
3767;SDS011;1899;49.966;7.106;2023-07-24T05:50:42;4.80;;;2.90;;
3767;SDS011;1899;49.966;7.106;2023-07-24T05:53:08;3.53;;;2.63;;
3767;SDS011;1899;49.966;7.106;2023-07-24T05:55:33;5.10;;;3.50;;
3767;SDS011;1899;49.966;7.106;2023-07-24T05:57:58;3.23;;;2.90;;
3767;SDS011;1899;49.966;7.106;2023-07-24T06:00:24;5.27;;;3.40;;
3767;SDS011;1899;49.966;7.106;2023-07-24T06:02:49;5.73;;;3.87;;
3767;SDS011;1899;49.966;7.106;2023-07-24T06:05:14;4.90;;;3.43;;
3767;SDS011;1899;49.966;7.106;2023-07-24T06:07:39;3.90;;;3.10;;
3767;SDS011;1899;49.966;7.106;2023-07-24T06:10:05;6.67;;;3.83;;
3767;SDS011;1899;49.966;7.106;2023-07-24T06:12:30;4.93;;;3.80;;
3767;SDS011;1899;49.966;7.106;2023-07-24T06:14:55;5.57;;;3.63;;
3767;SDS011;1899;49.966;7.106;2023-07-24T06:17:21;5.10;;;3.50;;
3767;SDS011;1899;49.966;7.106;2023-07-24T06:19:46;5.80;;;3.50;;
3767;SDS011;1899;49.966;7.106;2023-07-24T06:22:11;3.67;;;3.00;;
3767;SDS011;1899;49.966;7.106;2023-07-24T06:24:36;4.77;;;3.60;;
3767;SDS011;1899;49.966;7.106;2023-07-24T06:27:03;4.80;;;3.40;;
3767;SDS011;1899;49.966;7.106;2023-07-24T06:29:28;5.77;;;3.63;;
3767;SDS011;1899;49.966;7.106;2023-07-24T06:31:53;6.30;;;3.70;;
3767;SDS011;1899;49.966;7.106;2023-07-24T06:34:18;5.07;;;4.10;;
3767;SDS011;1899;49.966;7.106;2023-07-24T06:36:44;4.90;;;3.27;;
3767;SDS011;1899;49.966;7.106;2023-07-24T06:39:10;4.67;;;3.70;;
3767;SDS011;1899;49.966;7.106;2023-07-24T06:41:35;5.27;;;4.00;;
3767;SDS011;1899;49.966;7.106;2023-07-24T06:44:01;4.80;;;3.07;;
3767;SDS011;1899;49.966;7.106;2023-07-24T06:46:26;5.80;;;3.23;;
3767;SDS011;1899;49.966;7.106;2023-07-24T06:48:51;3.90;;;2.93;;
3767;SDS011;1899;49.966;7.106;2023-07-24T06:51:16;5.30;;;3.67;;
3767;SDS011;1899;49.966;7.106;2023-07-24T06:53:42;6.53;;;3.73;;
3767;SDS011;1899;49.966;7.106;2023-07-24T06:56:07;3.27;;;2.93;;
3767;SDS011;1899;49.966;7.106;2023-07-24T06:58:32;5.50;;;3.53;;
3767;SDS011;1899;49.966;7.106;2023-07-24T07:00:57;3.93;;;2.97;;
3767;SDS011;1899;49.966;7.106;2023-07-24T07:03:22;8.30;;;3.63;;
3767;SDS011;1899;49.966;7.106;2023-07-24T07:05:48;5.40;;;3.57;;
3767;SDS011;1899;49.966;7.106;2023-07-24T07:08:13;8.10;;;3.50;;
3767;SDS011;1899;49.966;7.106;2023-07-24T07:10:38;3.70;;;2.90;;
3767;SDS011;1899;49.966;7.106;2023-07-24T07:13:03;4.57;;;3.03;;
3767;SDS011;1899;49.966;7.106;2023-07-24T07:15:29;4.30;;;3.70;;
3767;SDS011;1899;49.966;7.106;2023-07-24T07:17:54;4.37;;;3.03;;
3767;SDS011;1899;49.966;7.106;2023-07-24T07:20:19;5.53;;;3.03;;
3767;SDS011;1899;49.966;7.106;2023-07-24T07:22:45;3.30;;;2.47;;
3767;SDS011;1899;49.966;7.106;2023-07-24T07:25:10;6.03;;;3.17;;
3767;SDS011;1899;49.966;7.106;2023-07-24T07:27:35;5.73;;;3.50;;
3767;SDS011;1899;49.966;7.106;2023-07-24T07:30:00;4.00;;;2.90;;
3767;SDS011;1899;49.966;7.106;2023-07-24T07:32:26;3.70;;;3.07;;
3767;SDS011;1899;49.966;7.106;2023-07-24T07:34:52;4.63;;;3.63;;
3767;SDS011;1899;49.966;7.106;2023-07-24T07:37:17;3.83;;;3.27;;
3767;SDS011;1899;49.966;7.106;2023-07-24T07:39:42;4.70;;;3.83;;
3767;SDS011;1899;49.966;7.106;2023-07-24T07:42:07;3.80;;;2.97;;
3767;SDS011;1899;49.966;7.106;2023-07-24T07:44:33;8.10;;;4.03;;
3767;SDS011;1899;49.966;7.106;2023-07-24T07:46:58;4.97;;;3.47;;
3767;SDS011;1899;49.966;7.106;2023-07-24T07:49:23;5.17;;;3.00;;
3767;SDS011;1899;49.966;7.106;2023-07-24T07:51:48;6.33;;;3.97;;
3767;SDS011;1899;49.966;7.106;2023-07-24T07:54:14;4.00;;;3.40;;
3767;SDS011;1899;49.966;7.106;2023-07-24T07:56:40;5.50;;;3.80;;
3767;SDS011;1899;49.966;7.106;2023-07-24T07:59:05;6.23;;;3.63;;
3767;SDS011;1899;49.966;7.106;2023-07-24T08:01:31;4.70;;;3.57;;
3767;SDS011;1899;49.966;7.106;2023-07-24T08:03:56;7.50;;;3.90;;
3767;SDS011;1899;49.966;7.106;2023-07-24T08:06:21;8.13;;;4.67;;
3767;SDS011;1899;49.966;7.106;2023-07-24T08:08:47;5.87;;;3.87;;
3767;SDS011;1899;49.966;7.106;2023-07-24T08:11:12;5.70;;;3.20;;
3767;SDS011;1899;49.966;7.106;2023-07-24T08:13:37;5.87;;;3.93;;
3767;SDS011;1899;49.966;7.106;2023-07-24T08:16:02;5.30;;;3.90;;
3767;SDS011;1899;49.966;7.106;2023-07-24T08:18:29;7.53;;;3.90;;
3767;SDS011;1899;49.966;7.106;2023-07-24T08:20:55;6.87;;;3.70;;
3767;SDS011;1899;49.966;7.106;2023-07-24T08:23:20;4.77;;;3.50;;
3767;SDS011;1899;49.966;7.106;2023-07-24T08:25:54;5.47;;;4.00;;
3767;SDS011;1899;49.966;7.106;2023-07-24T08:28:20;6.97;;;3.97;;
3767;SDS011;1899;49.966;7.106;2023-07-24T08:30:46;6.77;;;4.10;;
3767;SDS011;1899;49.966;7.106;2023-07-24T08:33:12;5.53;;;4.30;;
3767;SDS011;1899;49.966;7.106;2023-07-24T08:35:37;6.07;;;4.00;;
3767;SDS011;1899;49.966;7.106;2023-07-24T08:38:02;6.10;;;3.60;;
3767;SDS011;1899;49.966;7.106;2023-07-24T08:40:28;5.60;;;3.63;;
3767;SDS011;1899;49.966;7.106;2023-07-24T08:42:53;5.70;;;3.33;;
3767;SDS011;1899;49.966;7.106;2023-07-24T08:45:19;4.17;;;3.40;;
3767;SDS011;1899;49.966;7.106;2023-07-24T08:47:45;4.77;;;3.40;;
3767;SDS011;1899;49.966;7.106;2023-07-24T08:50:10;7.23;;;4.10;;
3767;SDS011;1899;49.966;7.106;2023-07-24T08:52:40;10.43;;;4.80;;
3767;SDS011;1899;49.966;7.106;2023-07-24T08:55:07;6.20;;;3.83;;
3767;SDS011;1899;49.966;7.106;2023-07-24T08:57:32;7.23;;;4.53;;
3767;SDS011;1899;49.966;7.106;2023-07-24T08:59:58;7.83;;;4.43;;
3767;SDS011;1899;49.966;7.106;2023-07-24T09:02:25;7.70;;;4.70;;
3767;SDS011;1899;49.966;7.106;2023-07-24T09:04:51;5.80;;;3.60;;
3767;SDS011;1899;49.966;7.106;2023-07-24T09:07:16;4.77;;;3.60;;
3767;SDS011;1899;49.966;7.106;2023-07-24T09:09:41;6.40;;;4.10;;
3767;SDS011;1899;49.966;7.106;2023-07-24T09:12:07;6.30;;;3.97;;
3767;SDS011;1899;49.966;7.106;2023-07-24T09:14:33;9.57;;;5.23;;
3767;SDS011;1899;49.966;7.106;2023-07-24T09:17:02;5.50;;;4.27;;
3767;SDS011;1899;49.966;7.106;2023-07-24T09:19:27;6.83;;;3.70;;
3767;SDS011;1899;49.966;7.106;2023-07-24T09:21:52;9.07;;;4.10;;
3767;SDS011;1899;49.966;7.106;2023-07-24T09:24:17;8.00;;;4.17;;
3767;SDS011;1899;49.966;7.106;2023-07-24T09:26:49;5.80;;;3.80;;
3767;SDS011;1899;49.966;7.106;2023-07-24T09:29:15;6.23;;;4.10;;
3767;SDS011;1899;49.966;7.106;2023-07-24T09:31:40;4.93;;;3.40;;
3767;SDS011;1899;49.966;7.106;2023-07-24T09:34:13;4.90;;;4.03;;
3767;SDS011;1899;49.966;7.106;2023-07-24T09:36:38;5.10;;;3.97;;
3767;SDS011;1899;49.966;7.106;2023-07-24T09:39:04;5.23;;;4.10;;
3767;SDS011;1899;49.966;7.106;2023-07-24T09:41:31;6.33;;;3.87;;
3767;SDS011;1899;49.966;7.106;2023-07-24T09:43:59;4.57;;;3.30;;
3767;SDS011;1899;49.966;7.106;2023-07-24T09:46:24;5.40;;;3.83;;
3767;SDS011;1899;49.966;7.106;2023-07-24T09:48:50;5.40;;;3.00;;
3767;SDS011;1899;49.966;7.106;2023-07-24T09:51:15;6.93;;;3.90;;
3767;SDS011;1899;49.966;7.106;2023-07-24T09:56:09;5.83;;;4.07;;
3767;SDS011;1899;49.966;7.106;2023-07-24T09:58:38;4.73;;;3.07;;
3767;SDS011;1899;49.966;7.106;2023-07-24T10:01:04;5.63;;;4.07;;
3767;SDS011;1899;49.966;7.106;2023-07-24T10:03:33;5.87;;;4.03;;
3767;SDS011;1899;49.966;7.106;2023-07-24T10:05:59;3.83;;;3.10;;
3767;SDS011;1899;49.966;7.106;2023-07-24T10:08:24;7.43;;;3.87;;
3767;SDS011;1899;49.966;7.106;2023-07-24T10:10:50;6.30;;;3.70;;
3767;SDS011;1899;49.966;7.106;2023-07-24T10:13:18;8.00;;;4.00;;
3767;SDS011;1899;49.966;7.106;2023-07-24T10:15:44;4.60;;;3.40;;
3767;SDS011;1899;49.966;7.106;2023-07-24T10:18:10;4.00;;;3.33;;
3767;SDS011;1899;49.966;7.106;2023-07-24T10:20:36;4.87;;;3.53;;
3767;SDS011;1899;49.966;7.106;2023-07-24T10:23:02;4.33;;;3.57;;
3767;SDS011;1899;49.966;7.106;2023-07-24T10:25:31;6.00;;;3.30;;
3767;SDS011;1899;49.966;7.106;2023-07-24T10:28:00;7.63;;;3.80;;
3767;SDS011;1899;49.966;7.106;2023-07-24T10:30:29;4.17;;;3.47;;
3767;SDS011;1899;49.966;7.106;2023-07-24T10:33:02;5.70;;;3.50;;
3767;SDS011;1899;49.966;7.106;2023-07-24T10:35:35;4.17;;;3.17;;
3767;SDS011;1899;49.966;7.106;2023-07-24T10:38:01;5.60;;;3.97;;
3767;SDS011;1899;49.966;7.106;2023-07-24T10:40:27;8.30;;;3.13;;
3767;SDS011;1899;49.966;7.106;2023-07-24T10:42:59;6.07;;;3.70;;
3767;SDS011;1899;49.966;7.106;2023-07-24T10:45:24;4.20;;;3.07;;
3767;SDS011;1899;49.966;7.106;2023-07-24T10:47:50;4.70;;;3.27;;
3767;SDS011;1899;49.966;7.106;2023-07-24T10:50:16;4.17;;;2.90;;
3767;SDS011;1899;49.966;7.106;2023-07-24T10:52:41;3.23;;;2.83;;
3767;SDS011;1899;49.966;7.106;2023-07-24T10:55:06;4.87;;;2.93;;
3767;SDS011;1899;49.966;7.106;2023-07-24T10:57:32;4.00;;;3.07;;
3767;SDS011;1899;49.966;7.106;2023-07-24T10:59:57;3.50;;;2.90;;
3767;SDS011;1899;49.966;7.106;2023-07-24T11:02:23;3.60;;;3.00;;
3767;SDS011;1899;49.966;7.106;2023-07-24T11:04:49;7.50;;;3.10;;
3767;SDS011;1899;49.966;7.106;2023-07-24T11:07:14;3.63;;;2.67;;
3767;SDS011;1899;49.966;7.106;2023-07-24T11:09:40;4.47;;;3.07;;
3767;SDS011;1899;49.966;7.106;2023-07-24T11:12:12;2.30;;;1.93;;
3767;SDS011;1899;49.966;7.106;2023-07-24T11:14:50;4.00;;;2.50;;
3767;SDS011;1899;49.966;7.106;2023-07-24T11:17:15;4.23;;;3.03;;
3767;SDS011;1899;49.966;7.106;2023-07-24T11:19:41;3.87;;;2.73;;
3767;SDS011;1899;49.966;7.106;2023-07-24T11:22:06;3.50;;;1.93;;
3767;SDS011;1899;49.966;7.106;2023-07-24T11:24:32;4.80;;;2.67;;
3767;SDS011;1899;49.966;7.106;2023-07-24T11:26:57;3.20;;;2.03;;
3767;SDS011;1899;49.966;7.106;2023-07-24T11:29:23;3.83;;;2.93;;
3767;SDS011;1899;49.966;7.106;2023-07-24T11:31:53;2.70;;;2.20;;
3767;SDS011;1899;49.966;7.106;2023-07-24T11:34:18;2.97;;;1.90;;
3767;SDS011;1899;49.966;7.106;2023-07-24T11:36:44;4.57;;;2.67;;
3767;SDS011;1899;49.966;7.106;2023-07-24T11:39:10;3.63;;;2.37;;
3767;SDS011;1899;49.966;7.106;2023-07-24T11:41:35;4.50;;;2.23;;
3767;SDS011;1899;49.966;7.106;2023-07-24T11:44:00;9.30;;;2.83;;
3767;SDS011;1899;49.966;7.106;2023-07-24T11:46:26;6.03;;;2.33;;
3767;SDS011;1899;49.966;7.106;2023-07-24T11:48:52;3.77;;;2.20;;
3767;SDS011;1899;49.966;7.106;2023-07-24T11:51:18;4.30;;;2.33;;
3767;SDS011;1899;49.966;7.106;2023-07-24T11:53:44;2.67;;;2.47;;
3767;SDS011;1899;49.966;7.106;2023-07-24T11:56:13;3.93;;;2.67;;
3767;SDS011;1899;49.966;7.106;2023-07-24T11:58:39;4.43;;;2.00;;
3767;SDS011;1899;49.966;7.106;2023-07-24T12:01:04;22.77;;;6.00;;
3767;SDS011;1899;49.966;7.106;2023-07-24T12:03:29;4.63;;;2.33;;
3767;SDS011;1899;49.966;7.106;2023-07-24T12:05:55;3.40;;;2.50;;
3767;SDS011;1899;49.966;7.106;2023-07-24T12:08:21;2.27;;;1.70;;
3767;SDS011;1899;49.966;7.106;2023-07-24T12:10:49;4.47;;;1.80;;
3767;SDS011;1899;49.966;7.106;2023-07-24T12:13:14;4.97;;;2.00;;
3767;SDS011;1899;49.966;7.106;2023-07-24T12:15:39;3.73;;;1.47;;
3767;SDS011;1899;49.966;7.106;2023-07-24T12:18:05;5.80;;;1.67;;
3767;SDS011;1899;49.966;7.106;2023-07-24T12:20:31;2.57;;;1.70;;
3767;SDS011;1899;49.966;7.106;2023-07-24T12:22:56;2.43;;;1.77;;
3767;SDS011;1899;49.966;7.106;2023-07-24T12:25:22;2.90;;;1.90;;
3767;SDS011;1899;49.966;7.106;2023-07-24T12:27:47;2.10;;;1.80;;
3767;SDS011;1899;49.966;7.106;2023-07-24T12:30:12;4.03;;;1.87;;
3767;SDS011;1899;49.966;7.106;2023-07-24T12:32:38;2.30;;;2.10;;
3767;SDS011;1899;49.966;7.106;2023-07-24T12:35:03;2.03;;;1.70;;
3767;SDS011;1899;49.966;7.106;2023-07-24T12:37:28;3.40;;;2.47;;
3767;SDS011;1899;49.966;7.106;2023-07-24T12:39:54;4.03;;;2.13;;
3767;SDS011;1899;49.966;7.106;2023-07-24T12:42:19;3.80;;;2.10;;
3767;SDS011;1899;49.966;7.106;2023-07-24T12:44:44;1.93;;;1.73;;
3767;SDS011;1899;49.966;7.106;2023-07-24T12:47:10;3.37;;;1.83;;
3767;SDS011;1899;49.966;7.106;2023-07-24T12:49:35;3.77;;;2.03;;
3767;SDS011;1899;49.966;7.106;2023-07-24T12:52:01;3.23;;;2.23;;
3767;SDS011;1899;49.966;7.106;2023-07-24T12:54:26;3.97;;;1.63;;
3767;SDS011;1899;49.966;7.106;2023-07-24T12:56:52;3.70;;;1.93;;
3767;SDS011;1899;49.966;7.106;2023-07-24T12:59:17;2.13;;;1.57;;
3767;SDS011;1899;49.966;7.106;2023-07-24T13:01:43;2.67;;;1.80;;
3767;SDS011;1899;49.966;7.106;2023-07-24T13:04:08;3.60;;;1.90;;
3767;SDS011;1899;49.966;7.106;2023-07-24T13:06:34;2.80;;;1.33;;
3767;SDS011;1899;49.966;7.106;2023-07-24T13:08:59;1.83;;;1.47;;
3767;SDS011;1899;49.966;7.106;2023-07-24T13:11:24;2.93;;;1.47;;
3767;SDS011;1899;49.966;7.106;2023-07-24T13:13:50;4.87;;;2.20;;
3767;SDS011;1899;49.966;7.106;2023-07-24T13:16:15;2.40;;;1.70;;
3767;SDS011;1899;49.966;7.106;2023-07-24T13:18:41;2.37;;;1.87;;
3767;SDS011;1899;49.966;7.106;2023-07-24T13:21:06;2.37;;;1.30;;
3767;SDS011;1899;49.966;7.106;2023-07-24T13:23:32;2.93;;;1.30;;
3767;SDS011;1899;49.966;7.106;2023-07-24T13:25:58;4.13;;;1.13;;
3767;SDS011;1899;49.966;7.106;2023-07-24T13:28:23;2.93;;;1.30;;
3767;SDS011;1899;49.966;7.106;2023-07-24T13:30:48;1.67;;;1.30;;
3767;SDS011;1899;49.966;7.106;2023-07-24T13:33:13;1.30;;;1.10;;
3767;SDS011;1899;49.966;7.106;2023-07-24T13:35:39;2.17;;;1.33;;
3767;SDS011;1899;49.966;7.106;2023-07-24T13:38:04;1.20;;;1.10;;
3767;SDS011;1899;49.966;7.106;2023-07-24T13:40:29;1.40;;;1.13;;
3767;SDS011;1899;49.966;7.106;2023-07-24T13:42:54;1.57;;;1.20;;
3767;SDS011;1899;49.966;7.106;2023-07-24T13:45:21;1.43;;;1.10;;
3767;SDS011;1899;49.966;7.106;2023-07-24T13:47:46;1.90;;;0.93;;
3767;SDS011;1899;49.966;7.106;2023-07-24T13:50:11;1.33;;;1.10;;
3767;SDS011;1899;49.966;7.106;2023-07-24T13:52:36;1.33;;;1.00;;
3767;SDS011;1899;49.966;7.106;2023-07-24T13:55:02;2.73;;;1.10;;
3767;SDS011;1899;49.966;7.106;2023-07-24T13:57:27;1.73;;;1.00;;
3767;SDS011;1899;49.966;7.106;2023-07-24T13:59:52;1.70;;;1.27;;
3767;SDS011;1899;49.966;7.106;2023-07-24T14:02:17;2.63;;;1.10;;
3767;SDS011;1899;49.966;7.106;2023-07-24T14:04:43;1.20;;;1.10;;
3767;SDS011;1899;49.966;7.106;2023-07-24T14:07:09;1.60;;;1.30;;
3767;SDS011;1899;49.966;7.106;2023-07-24T14:09:35;1.10;;;0.93;;
3767;SDS011;1899;49.966;7.106;2023-07-24T14:12:00;1.63;;;1.23;;
3767;SDS011;1899;49.966;7.106;2023-07-24T14:14:25;1.70;;;1.20;;
3767;SDS011;1899;49.966;7.106;2023-07-24T14:16:51;1.60;;;1.37;;
3767;SDS011;1899;49.966;7.106;2023-07-24T14:19:16;2.17;;;1.00;;
3767;SDS011;1899;49.966;7.106;2023-07-24T14:21:42;2.17;;;1.50;;
3767;SDS011;1899;49.966;7.106;2023-07-24T14:24:07;1.63;;;1.17;;
3767;SDS011;1899;49.966;7.106;2023-07-24T14:26:33;2.23;;;1.33;;
3767;SDS011;1899;49.966;7.106;2023-07-24T14:28:58;1.57;;;1.30;;
3767;SDS011;1899;49.966;7.106;2023-07-24T14:31:23;1.30;;;1.20;;
3767;SDS011;1899;49.966;7.106;2023-07-24T14:33:49;1.40;;;1.00;;
3767;SDS011;1899;49.966;7.106;2023-07-24T14:36:14;1.20;;;0.93;;
3767;SDS011;1899;49.966;7.106;2023-07-24T14:38:40;2.10;;;1.57;;
3767;SDS011;1899;49.966;7.106;2023-07-24T14:41:05;1.60;;;1.20;;
3767;SDS011;1899;49.966;7.106;2023-07-24T14:43:30;2.43;;;1.40;;
3767;SDS011;1899;49.966;7.106;2023-07-24T14:45:56;1.63;;;1.30;;
3767;SDS011;1899;49.966;7.106;2023-07-24T14:48:21;2.50;;;1.50;;
3767;SDS011;1899;49.966;7.106;2023-07-24T14:50:46;1.57;;;1.03;;
3767;SDS011;1899;49.966;7.106;2023-07-24T14:53:12;2.10;;;1.30;;
3767;SDS011;1899;49.966;7.106;2023-07-24T14:55:37;1.93;;;1.30;;
3767;SDS011;1899;49.966;7.106;2023-07-24T14:58:02;3.77;;;2.00;;
3767;SDS011;1899;49.966;7.106;2023-07-24T15:00:27;3.10;;;1.60;;
3767;SDS011;1899;49.966;7.106;2023-07-24T15:02:54;2.90;;;1.60;;
3767;SDS011;1899;49.966;7.106;2023-07-24T15:05:19;2.53;;;1.57;;
3767;SDS011;1899;49.966;7.106;2023-07-24T15:07:44;2.30;;;1.50;;
3767;SDS011;1899;49.966;7.106;2023-07-24T15:10:10;3.20;;;1.37;;